Hoboken — WDA9734 — position and weather

sailwx.info

Track history (hours):
 
Tides and Currents Weather Stations Pressure Air Temp Water Temp Dewpoint Dewpoint Depression Visibility Wind Speed Wind Dir Waves Ship Positions

Hoboken

Owner: PORT IMPERIAL FERRY CORP, WEEHAWKEN, NJ. More information available from US FCC via Universal Licensing System and Coast Guard Vessel Documentation Center.

Last reported at 2018-Jan-22 03:03 UTC. Time now 2018-Jan-22 06:37 UTC.
Position N 40°46' W 074°01'.

Length 26 m; draft 2 m.

Type: Passenger vessel. MMSI: 366868360.

Date/timePositionNaut miles runAvg speedWind from/ knotsBaromVisibWave heightAir tempDewpointWater temp
2018-Jan-22 03:03N 40°46' W 074°01'0 0.0
2018-Jan-20 00:31N 40°46' W 074°01'0 0.0
2018-Jan-20 00:30N 40°46' W 074°01'4 8.3
2018-Jan-20 00:00N 40°43' W 073°58'2 4.2
2018-Jan-19 23:31N 40°45' W 073°58'3 5.9
2018-Jan-19 23:00N 40°42' W 074°00'2 4.1
2018-Jan-19 22:30N 40°43' W 073°58'1 1.2
2018-Jan-19 22:00N 40°44' W 073°58'3 5.2
2018-Jan-19 21:30N 40°42' W 074°00'3 6.9
2018-Jan-19 21:00N 40°46' W 074°01'1 1.3
2018-Jan-19 20:30N 40°46' W 074°01'0 0.0
2018-Jan-19 20:00N 40°46' W 074°01'0 0.0
2018-Jan-19 19:30N 40°46' W 074°01'0 0.0
2018-Jan-19 19:00N 40°46' W 074°01'0 0.0
2018-Jan-19 18:30N 40°46' W 074°01'0 0.0
2018-Jan-19 18:00N 40°46' W 074°01'0 0.0
2018-Jan-19 17:30N 40°46' W 074°01'0 0.0
2018-Jan-19 17:00N 40°46' W 074°01'3 7.0
2018-Jan-19 16:30N 40°43' W 074°01'0 0.0
2018-Jan-19 16:00N 40°43' W 074°01'0 0.0
2018-Jan-19 15:30N 40°43' W 074°01'0 0.0
2018-Jan-19 15:00N 40°43' W 074°01'0 0.0
2018-Jan-19 14:29N 40°43' W 074°01'0 0.0
2018-Jan-19 14:00N 40°43' W 074°01'0 0.0
2018-Jan-19 13:30N 40°43' W 074°01'0 0.1
2018-Jan-19 13:00N 40°43' W 074°01'0 0.1
2018-Jan-19 12:30N 40°43' W 074°01'0 0.1
2018-Jan-19 12:00N 40°43' W 074°01'0 0.1
2018-Jan-19 11:30N 40°43' W 074°01'1 2.8
2018-Jan-19 11:01N 40°44' W 074°01'0 0.0
2018-Jan-18 23:55N 40°44' W 074°02'1 3.1
2018-Jan-18 23:30N 40°43' W 074°01'1 2.1
2018-Jan-18 23:01N 40°44' W 074°01'1 2.0
2018-Jan-18 22:30N 40°43' W 074°01'1 2.4
2018-Jan-18 22:00N 40°44' W 074°02'1 2.4
2018-Jan-18 21:30N 40°43' W 074°01'1 2.4
2018-Jan-18 21:01N 40°44' W 074°02'1 2.4
2018-Jan-18 20:31N 40°43' W 074°01'1 2.4
2018-Jan-18 20:00N 40°44' W 074°02'0 0.1
2018-Jan-18 19:30N 40°44' W 074°02'0 0.0
2018-Jan-18 19:00N 40°44' W 074°02'0 0.0
2018-Jan-18 18:31N 40°44' W 074°02'0 0.0
2018-Jan-18 17:59N 40°44' W 074°02'0 0.0
2018-Jan-18 17:30N 40°44' W 074°02'0 0.0
2018-Jan-18 17:01N 40°44' W 074°02'0 0.0
2018-Jan-18 16:31N 40°44' W 074°02'0 0.0
2018-Jan-18 16:00N 40°44' W 074°02'0 0.0
2018-Jan-18 15:30N 40°44' W 074°02'1 2.4
2018-Jan-18 15:00N 40°43' W 074°01'1 2.4
2018-Jan-18 14:30N 40°44' W 074°02'1 2.5
2018-Jan-18 14:01N 40°43' W 074°01'1 2.5
2018-Jan-18 13:30N 40°44' W 074°02'1 2.5
2018-Jan-18 13:00N 40°43' W 074°01'1 2.5
2018-Jan-18 12:30N 40°44' W 074°02'1 2.5
2018-Jan-18 12:00N 40°43' W 074°01'1 2.4
2018-Jan-18 11:31N 40°44' W 074°01'0 0.0
2018-Jan-18 02:13N 40°44' W 074°02'1 5.9
2018-Jan-18 02:00N 40°43' W 074°01'0 0.0
2018-Jan-18 01:31N 40°43' W 074°01'0 0.0
2018-Jan-18 01:00N 40°43' W 074°01'0 0.0
2018-Jan-18 00:00N 40°43' W 074°01'0 6.4
2018-Jan-17 23:58N 40°43' W 074°01'  
2018-Jan-12 15:00N 40°45' W 074°01'3 5.8
2018-Jan-12 14:31N 40°43' W 073°58'2 3.6
2018-Jan-12 14:01N 40°45' W 073°58'3 5.5
2018-Jan-12 13:30N 40°42' W 073°60'2 3.5
2018-Jan-12 13:00N 40°43' W 073°58'1 1.8
2018-Jan-12 12:31N 40°44' W 073°58'3 5.4
2018-Jan-12 12:00N 40°42' W 074°00'4 8.1
2018-Jan-12 11:30N 40°46' W 074°01'0 0.0
2018-Jan-12 10:43N 40°46' W 074°01'0 0.0
2018-Jan-12 10:30N 40°46' W 074°01'  
Track history (hours):
 
Tides and Currents Weather Stations Pressure Air Temp Water Temp Dewpoint Dewpoint Depression Visibility Wind Speed Wind Dir Waves Ship Positions

Hoboken

Owner: PORT IMPERIAL FERRY CORP, WEEHAWKEN, NJ. More information available from US FCC via Universal Licensing System and Coast Guard Vessel Documentation Center.

Last reported at 2018-Jan-22 03:03 UTC. Time now 2018-Jan-22 06:37 UTC.
Position N 40°46' W 074°01'.

Length 26 m; draft 2 m.

Type: Passenger vessel. MMSI: 366868360.

Date/timePositionNaut miles runAvg speedWind from/ knotsBaromVisibWave heightAir tempDewpointWater temp
2018-Jan-22 03:03N 40°46' W 074°01'0 0.0
2018-Jan-20 00:31N 40°46' W 074°01'0 0.0
2018-Jan-20 00:30N 40°46' W 074°01'4 8.3
2018-Jan-20 00:00N 40°43' W 073°58'2 4.2
2018-Jan-19 23:31N 40°45' W 073°58'3 5.9
2018-Jan-19 23:00N 40°42' W 074°00'2 4.1
2018-Jan-19 22:30N 40°43' W 073°58'1 1.2
2018-Jan-19 22:00N 40°44' W 073°58'3 5.2
2018-Jan-19 21:30N 40°42' W 074°00'3 6.9
2018-Jan-19 21:00N 40°46' W 074°01'1 1.3
2018-Jan-19 20:30N 40°46' W 074°01'0 0.0
2018-Jan-19 20:00N 40°46' W 074°01'0 0.0
2018-Jan-19 19:30N 40°46' W 074°01'0 0.0
2018-Jan-19 19:00N 40°46' W 074°01'0 0.0
2018-Jan-19 18:30N 40°46' W 074°01'0 0.0
2018-Jan-19 18:00N 40°46' W 074°01'0 0.0
2018-Jan-19 17:30N 40°46' W 074°01'0 0.0
2018-Jan-19 17:00N 40°46' W 074°01'3 7.0
2018-Jan-19 16:30N 40°43' W 074°01'0 0.0
2018-Jan-19 16:00N 40°43' W 074°01'0 0.0
2018-Jan-19 15:30N 40°43' W 074°01'0 0.0
2018-Jan-19 15:00N 40°43' W 074°01'0 0.0
2018-Jan-19 14:29N 40°43' W 074°01'0 0.0
2018-Jan-19 14:00N 40°43' W 074°01'0 0.0
2018-Jan-19 13:30N 40°43' W 074°01'0 0.1
2018-Jan-19 13:00N 40°43' W 074°01'0 0.1
2018-Jan-19 12:30N 40°43' W 074°01'0 0.1
2018-Jan-19 12:00N 40°43' W 074°01'0 0.1
2018-Jan-19 11:30N 40°43' W 074°01'1 2.8
2018-Jan-19 11:01N 40°44' W 074°01'0 0.0
2018-Jan-18 23:55N 40°44' W 074°02'1 3.1
2018-Jan-18 23:30N 40°43' W 074°01'1 2.1
2018-Jan-18 23:01N 40°44' W 074°01'1 2.0
2018-Jan-18 22:30N 40°43' W 074°01'1 2.4
2018-Jan-18 22:00N 40°44' W 074°02'1 2.4
2018-Jan-18 21:30N 40°43' W 074°01'1 2.4
2018-Jan-18 21:01N 40°44' W 074°02'1 2.4
2018-Jan-18 20:31N 40°43' W 074°01'1 2.4
2018-Jan-18 20:00N 40°44' W 074°02'0 0.1
2018-Jan-18 19:30N 40°44' W 074°02'0 0.0
2018-Jan-18 19:00N 40°44' W 074°02'0 0.0
2018-Jan-18 18:31N 40°44' W 074°02'0 0.0
2018-Jan-18 17:59N 40°44' W 074°02'0 0.0
2018-Jan-18 17:30N 40°44' W 074°02'0 0.0
2018-Jan-18 17:01N 40°44' W 074°02'0 0.0
2018-Jan-18 16:31N 40°44' W 074°02'0 0.0
2018-Jan-18 16:00N 40°44' W 074°02'0 0.0
2018-Jan-18 15:30N 40°44' W 074°02'1 2.4
2018-Jan-18 15:00N 40°43' W 074°01'1 2.4
2018-Jan-18 14:30N 40°44' W 074°02'1 2.5
2018-Jan-18 14:01N 40°43' W 074°01'1 2.5
2018-Jan-18 13:30N 40°44' W 074°02'1 2.5
2018-Jan-18 13:00N 40°43' W 074°01'1 2.5
2018-Jan-18 12:30N 40°44' W 074°02'1 2.5
2018-Jan-18 12:00N 40°43' W 074°01'1 2.4
2018-Jan-18 11:31N 40°44' W 074°01'0 0.0
2018-Jan-18 02:13N 40°44' W 074°02'1 5.9
2018-Jan-18 02:00N 40°43' W 074°01'0 0.0
2018-Jan-18 01:31N 40°43' W 074°01'0 0.0
2018-Jan-18 01:00N 40°43' W 074°01'0 0.0
2018-Jan-18 00:00N 40°43' W 074°01'0 6.4
2018-Jan-17 23:58N 40°43' W 074°01'  
2018-Jan-12 15:00N 40°45' W 074°01'3 5.8
2018-Jan-12 14:31N 40°43' W 073°58'2 3.6
2018-Jan-12 14:01N 40°45' W 073°58'3 5.5
2018-Jan-12 13:30N 40°42' W 073°60'2 3.5
2018-Jan-12 13:00N 40°43' W 073°58'1 1.8
2018-Jan-12 12:31N 40°44' W 073°58'3 5.4
2018-Jan-12 12:00N 40°42' W 074°00'4 8.1
2018-Jan-12 11:30N 40°46' W 074°01'0 0.0
2018-Jan-12 10:43N 40°46' W 074°01'0 0.0
2018-Jan-12 10:30N 40°46' W 074°01'  

Dump ship's entire track history